createdAt,value
2022-12-08T00:01:27.147Z,97595.78
2022-12-08T00:03:54.466Z,97617.84
2022-12-08T00:07:00.299Z,97614.03
2022-12-08T00:09:39.895Z,97613.81
2022-12-08T00:12:21.060Z,97613.91
2022-12-08T00:14:50.831Z,97600.78
2022-12-08T00:17:19.868Z,97598.38
2022-12-08T00:19:46.374Z,97588.91
2022-12-08T00:22:14.774Z,97597.09
2022-12-08T00:24:49.943Z,97586.16
2022-12-08T00:27:18.496Z,97586.66
2022-12-08T00:29:45.839Z,97582.03
2022-12-08T00:32:13.107Z,97578.13
2022-12-08T00:34:39.707Z,97583.34
2022-12-08T00:37:06.218Z,97587.97
2022-12-08T00:39:32.973Z,97582.38
2022-12-08T00:42:14.649Z,97570.91
2022-12-08T00:44:42.963Z,97574.34
2022-12-08T00:47:10.159Z,97578.13
2022-12-08T00:49:36.702Z,97560.22
2022-12-08T00:52:03.412Z,97542.78
2022-12-08T00:54:29.982Z,97551.81
2022-12-08T00:56:56.477Z,97546.47
2022-12-08T00:59:22.994Z,97544.56
2022-12-08T01:01:51.897Z,97541.16
2022-12-08T01:04:22.136Z,97546.34
2022-12-08T01:06:51.853Z,97551.91
2022-12-08T01:09:19.094Z,97548.72
2022-12-08T01:11:46.063Z,97555.50
2022-12-08T01:14:13.272Z,97544.22
2022-12-08T01:16:41.529Z,97543.13
2022-12-08T01:19:10.790Z,97527.13
2022-12-08T01:21:37.438Z,97539.47
2022-12-08T01:24:04.287Z,97541.34
2022-12-08T01:26:30.847Z,97542.88
2022-12-08T01:28:57.387Z,97535.03
2022-12-08T01:31:24.439Z,97547.59
2022-12-08T01:33:53.529Z,97538.81
2022-12-08T01:36:25.793Z,97540.13
2022-12-08T01:38:56.598Z,97537.88
2022-12-08T01:41:29.979Z,97534.94
2022-12-08T01:44:13.588Z,97537.19
2022-12-08T01:46:42.136Z,97538.84
2022-12-08T01:49:26.261Z,97543.09
2022-12-08T01:52:00.269Z,97547.13
2022-12-08T01:54:32.286Z,97545.47
2022-12-08T01:57:00.847Z,97549.22
2022-12-08T01:59:30.516Z,97540.50
2022-12-08T02:01:57.988Z,97529.50
2022-12-08T02:04:27.541Z,97551.22
2022-12-08T02:06:58.115Z,97542.69
2022-12-08T02:09:27.491Z,97551.22
2022-12-08T02:11:57.714Z,97537.91
2022-12-08T02:14:28.598Z,97546.91
2022-12-08T02:17:22.325Z,97549.63
2022-12-08T02:20:21.203Z,97541.47
2022-12-08T02:23:22.732Z,97539.47
2022-12-08T02:26:11.075Z,97549.06
2022-12-08T02:29:02.332Z,97543.16
2022-12-08T02:32:06.699Z,97539.72
2022-12-08T02:34:57.261Z,97526.56
2022-12-08T02:37:32.717Z,97518.50
2022-12-08T02:40:13.918Z,97517.91
2022-12-08T02:42:47.602Z,97518.16
2022-12-08T02:45:24.086Z,97516.00
2022-12-08T02:47:52.062Z,97510.28
2022-12-08T02:50:18.942Z,97497.72
2022-12-08T02:52:48.307Z,97508.84
2022-12-08T02:55:27.711Z,97487.00
2022-12-08T02:58:37.972Z,97485.00
2022-12-08T03:01:12.103Z,97483.31
2022-12-08T03:03:46.101Z,97483.78
2022-12-08T03:06:12.559Z,97476.75
2022-12-08T03:08:56.343Z,97470.44
2022-12-08T03:11:41.905Z,97471.19
2022-12-08T03:14:14.264Z,97462.03
2022-12-08T03:16:43.297Z,97455.66
2022-12-08T03:19:19.877Z,97448.69
2022-12-08T03:21:53.627Z,97464.78
2022-12-08T03:24:23.169Z,97463.94
2022-12-08T03:26:59.854Z,97457.47
2022-12-08T03:29:26.778Z,97453.75
2022-12-08T03:32:04.584Z,97442.13
2022-12-08T03:34:31.685Z,97451.97
2022-12-08T03:37:01.387Z,97442.75
2022-12-08T03:39:34.850Z,97433.44
2022-12-08T03:42:01.354Z,97426.38
2022-12-08T03:44:29.611Z,97429.13
2022-12-08T03:46:56.138Z,97420.00
2022-12-08T03:49:22.711Z,97424.28
2022-12-08T03:51:49.474Z,97420.09
2022-12-08T03:54:16.040Z,97426.75
2022-12-08T03:56:42.621Z,97419.13
2022-12-08T03:59:10.553Z,97412.00
2022-12-08T04:01:37.182Z,97421.09
2022-12-08T04:04:03.720Z,97404.28
2022-12-08T04:06:34.744Z,97409.63
2022-12-08T04:09:04.462Z,97412.22
2022-12-08T04:11:34.026Z,97400.44
2022-12-08T04:14:03.655Z,97409.31
2022-12-08T04:16:33.806Z,97391.47
2022-12-08T04:19:03.570Z,97386.69
2022-12-08T04:21:32.493Z,97386.47
2022-12-08T04:24:01.339Z,97386.81
2022-12-08T04:26:28.743Z,97384.09
2022-12-08T04:28:55.512Z,97392.84
2022-12-08T04:31:22.106Z,97396.56
2022-12-08T04:33:48.743Z,97396.25
2022-12-08T04:36:15.269Z,97401.13
2022-12-08T04:38:41.803Z,97402.06
2022-12-08T04:41:08.661Z,97406.81
2022-12-08T04:43:35.880Z,97400.09
2022-12-08T04:46:08.998Z,97401.13
2022-12-08T04:48:37.812Z,97392.72
2022-12-08T04:51:04.692Z,97387.22
2022-12-08T04:53:36.397Z,97381.34
2022-12-08T04:56:11.712Z,97377.25
2022-12-08T04:58:38.198Z,97385.75
2022-12-08T05:01:07.280Z,97370.50
2022-12-08T05:03:36.954Z,97371.84
2022-12-08T05:06:07.302Z,97371.94
2022-12-08T05:08:36.911Z,97365.81
2022-12-08T05:11:09.172Z,97369.94
2022-12-08T05:13:35.723Z,97356.56
2022-12-08T05:16:07.497Z,97359.88
2022-12-08T05:18:38.397Z,97368.63
2022-12-08T05:21:06.359Z,97365.50
2022-12-08T05:23:36.735Z,97365.41
2022-12-08T05:26:06.002Z,97364.91
2022-12-08T05:28:42.246Z,97361.41
2022-12-08T05:31:09.997Z,97361.53
2022-12-08T05:33:36.747Z,97354.06
2022-12-08T05:36:04.717Z,97355.06
2022-12-08T05:38:31.973Z,97353.81
2022-12-08T05:40:58.647Z,97335.59
2022-12-08T05:43:25.148Z,97344.38
2022-12-08T05:45:51.757Z,97331.50
2022-12-08T05:48:18.382Z,97324.53
2022-12-08T05:50:48.717Z,97336.13
2022-12-08T05:53:16.707Z,97325.88
2022-12-08T05:55:43.435Z,97318.91
2022-12-08T05:58:14.780Z,97330.63
2022-12-08T06:00:42.403Z,97329.63
2022-12-08T06:03:11.613Z,97329.31
2022-12-08T06:05:43.019Z,97326.25
2022-12-08T06:08:10.039Z,97323.97
2022-12-08T06:10:39.720Z,97326.28
2022-12-08T06:13:08.726Z,97332.06
2022-12-08T06:15:38.738Z,97325.06
2022-12-08T06:18:09.563Z,97316.84
2022-12-08T06:20:38.836Z,97326.69
2022-12-08T06:23:05.388Z,97317.84
2022-12-08T06:25:31.942Z,97335.25
2022-12-08T06:27:58.492Z,97328.22
2022-12-08T06:30:25.039Z,97333.13
2022-12-08T06:32:51.555Z,97326.00
2022-12-08T06:35:18.164Z,97320.41
2022-12-08T06:37:44.695Z,97314.47
2022-12-08T06:40:11.635Z,97318.50
2022-12-08T06:42:44.024Z,97307.16
2022-12-08T06:45:12.873Z,97304.13
2022-12-08T06:47:42.727Z,97311.91
2022-12-08T06:50:11.135Z,97310.59
2022-12-08T06:52:47.284Z,97309.56
2022-12-08T06:55:35.409Z,97310.03
2022-12-08T06:58:02.638Z,97304.56
2022-12-08T07:00:29.334Z,97304.56
2022-12-08T07:02:55.949Z,97305.94
2022-12-08T07:05:22.511Z,97306.59
2022-12-08T07:07:49.141Z,97309.50
2022-12-08T07:10:15.717Z,97295.50
2022-12-08T07:12:42.243Z,97300.78
2022-12-08T07:15:10.681Z,97293.97
2022-12-08T07:17:37.253Z,97298.81
2022-12-08T07:20:04.313Z,97301.84
2022-12-08T07:22:30.994Z,97295.50
2022-12-08T07:24:57.481Z,97307.81
2022-12-08T07:27:23.976Z,97301.94
2022-12-08T07:29:50.514Z,97295.19
2022-12-08T07:32:16.990Z,97287.88
2022-12-08T07:34:43.514Z,97282.38
2022-12-08T07:37:12.527Z,97284.75
2022-12-08T07:39:39.015Z,97285.13
2022-12-08T07:42:05.564Z,97294.66
2022-12-08T07:44:32.080Z,97298.53
2022-12-08T07:46:58.603Z,97274.44
2022-12-08T07:49:25.160Z,97274.91
2022-12-08T07:51:51.683Z,97268.97
2022-12-08T07:54:18.174Z,97265.72
2022-12-08T07:56:44.663Z,97251.88
2022-12-08T07:59:15.363Z,97246.84
2022-12-08T08:01:45.515Z,97247.69
2022-12-08T08:04:13.494Z,97253.97
2022-12-08T08:06:40.143Z,97250.75
2022-12-08T08:09:06.787Z,97249.56
2022-12-08T08:11:33.381Z,97242.53
2022-12-08T08:13:59.880Z,97249.19
2022-12-08T08:16:26.571Z,97244.78
2022-12-08T08:18:53.589Z,97244.09
2022-12-08T08:24:07.854Z,97241.13
2022-12-08T08:26:34.613Z,97238.72
2022-12-08T08:29:01.107Z,97238.25
2022-12-08T08:31:27.725Z,97240.25
2022-12-08T08:33:55.648Z,97243.19
2022-12-08T08:36:22.635Z,97233.50
2022-12-08T08:38:49.239Z,97245.28
2022-12-08T08:41:18.785Z,97235.50
2022-12-08T08:43:48.296Z,97235.59
2022-12-08T08:46:16.954Z,97246.78
2022-12-08T08:48:43.527Z,97242.69
2022-12-08T08:51:32.302Z,97224.56
2022-12-08T08:53:59.088Z,97242.91
2022-12-08T08:56:25.984Z,97243.75
2022-12-08T08:58:53.244Z,97247.50
2022-12-08T09:01:27.078Z,97237.16
2022-12-08T09:03:54.929Z,97239.97
2022-12-08T09:06:22.171Z,97228.56
2022-12-08T09:08:49.067Z,97234.84
2022-12-08T09:11:18.986Z,97230.09
2022-12-08T09:13:49.815Z,97229.91
2022-12-08T09:16:20.196Z,97223.69
2022-12-08T09:18:49.318Z,97231.94
2022-12-08T09:21:22.684Z,97219.50
2022-12-08T09:23:58.771Z,97222.13
2022-12-08T09:26:27.579Z,97220.63
2022-12-08T09:28:56.133Z,97218.53
2022-12-08T09:31:23.949Z,97201.47
2022-12-08T09:33:53.704Z,97203.66
2022-12-08T09:36:20.636Z,97201.00
2022-12-08T09:38:47.876Z,97217.00
2022-12-08T09:41:20.549Z,97210.91
2022-12-08T09:44:00.374Z,97216.16
2022-12-08T09:46:30.541Z,97205.94
2022-12-08T09:48:59.163Z,97196.88
2022-12-08T09:51:30.722Z,97190.28
2022-12-08T09:54:02.457Z,97188.97
2022-12-08T09:56:33.791Z,97199.94
2022-12-08T09:59:03.941Z,97203.06
2022-12-08T10:01:41.937Z,97193.44
2022-12-08T10:04:32.469Z,97199.22
2022-12-08T10:07:21.076Z,97188.16
2022-12-08T10:10:22.411Z,97179.09
2022-12-08T10:13:07.208Z,97177.88
2022-12-08T10:15:33.691Z,97164.50
2022-12-08T10:18:18.652Z,97162.56
2022-12-08T10:20:50.987Z,97168.41
2022-12-08T10:23:39.628Z,97152.34
2022-12-08T10:26:11.998Z,97161.66
2022-12-08T10:28:44.523Z,97147.72
2022-12-08T10:31:20.791Z,97146.06
2022-12-08T10:33:52.901Z,97133.75
2022-12-08T10:36:19.749Z,97124.72
2022-12-08T10:38:47.252Z,97139.38
2022-12-08T10:41:18.406Z,97138.56
2022-12-08T10:43:49.681Z,97139.00
2022-12-08T10:46:21.825Z,97132.38
2022-12-08T10:48:52.934Z,97119.16
2022-12-08T10:51:33.574Z,97108.97
2022-12-08T10:54:00.518Z,97115.78
2022-12-08T10:56:30.116Z,97109.88
2022-12-08T10:59:05.926Z,97111.28
2022-12-08T11:01:39.464Z,97103.63
2022-12-08T11:04:17.753Z,97106.78
2022-12-08T11:06:45.197Z,97104.94
2022-12-08T11:09:20.876Z,97096.38
2022-12-08T11:12:23.022Z,97083.97
2022-12-08T11:15:01.575Z,97084.38
2022-12-08T11:17:35.605Z,97082.91
2022-12-08T11:20:11.281Z,97077.28
2022-12-08T11:22:42.901Z,97077.88
2022-12-08T11:25:27.689Z,97068.81
2022-12-08T11:27:58.048Z,97057.22
2022-12-08T11:30:48.770Z,97055.00
2022-12-08T11:33:22.508Z,97057.78
2022-12-08T11:36:09.023Z,97047.75
2022-12-08T11:38:41.873Z,97045.75
2022-12-08T11:41:16.399Z,97046.09
2022-12-08T11:44:06.130Z,97050.88
2022-12-08T11:46:40.891Z,97038.78
2022-12-08T11:49:13.551Z,97034.03
2022-12-08T11:51:43.993Z,97026.34
2022-12-08T11:54:26.131Z,97018.03
2022-12-08T11:57:02.017Z,97009.56
2022-12-08T11:59:41.923Z,97006.22
2022-12-08T12:02:17.795Z,96997.53
2022-12-08T12:04:52.213Z,96999.34
2022-12-08T12:07:33.245Z,96992.13
2022-12-08T12:10:20.680Z,96992.53
2022-12-08T12:12:49.882Z,96986.53
2022-12-08T12:15:32.505Z,96968.19
2022-12-08T12:18:20.562Z,96980.41
2022-12-08T12:20:57.446Z,96972.31
2022-12-08T12:23:39.073Z,96970.72
2022-12-08T12:26:07.761Z,96964.91
2022-12-08T12:28:53.173Z,96954.03
2022-12-08T12:31:25.702Z,96950.50
2022-12-08T12:33:57.145Z,96946.44
2022-12-08T12:36:25.585Z,96940.09
2022-12-08T12:39:08.649Z,96929.72
2022-12-08T12:41:56.588Z,96932.88
2022-12-08T12:44:28.965Z,96938.75
2022-12-08T12:46:58.804Z,96925.88
2022-12-08T12:49:40.677Z,96921.22
2022-12-08T12:52:10.156Z,96913.09
2022-12-08T12:54:36.701Z,96909.56
2022-12-08T12:57:09.380Z,96902.44
2022-12-08T12:59:35.834Z,96901.22
2022-12-08T13:02:03.085Z,96898.44
2022-12-08T13:04:35.129Z,96912.03
2022-12-08T13:07:02.171Z,96907.13
2022-12-08T13:09:39.858Z,96896.47
2022-12-08T13:12:23.457Z,96902.94
2022-12-08T13:14:51.694Z,96897.53
2022-12-08T13:17:28.340Z,96887.91
2022-12-08T13:19:58.451Z,96882.81
2022-12-08T13:22:54.213Z,96883.00
2022-12-08T13:25:38.960Z,96879.31
2022-12-08T13:28:20.928Z,96878.47
2022-12-08T13:30:50.279Z,96886.47
2022-12-08T13:33:41.178Z,96895.25
2022-12-08T13:36:13.452Z,96887.88
2022-12-08T13:38:43.993Z,96872.72
2022-12-08T13:41:19.092Z,96877.66
2022-12-08T13:45:17.910Z,96874.56
2022-12-08T13:47:31.521Z,96869.03
2022-12-08T13:50:55.709Z,96853.50
2022-12-08T13:58:37.356Z,96864.69
2022-12-08T14:01:21.720Z,96858.59
2022-12-08T14:04:31.040Z,96861.66
2022-12-08T14:06:46.707Z,96858.75
2022-12-08T14:09:19.192Z,96858.00
2022-12-08T14:11:59.067Z,96845.59
2022-12-08T14:17:31.376Z,96860.53
2022-12-08T14:20:06.574Z,96864.28
2022-12-08T14:22:38.708Z,96864.38
2022-12-08T14:25:07.910Z,96868.88
2022-12-08T14:27:37.130Z,96862.50
2022-12-08T14:30:06.201Z,96870.38
2022-12-08T14:33:11.341Z,96883.41
2022-12-08T14:35:39.633Z,96865.88
2022-12-08T14:38:14.171Z,96884.81
2022-12-08T14:40:44.144Z,96882.34
2022-12-08T14:43:12.336Z,96879.53
2022-12-08T14:45:45.128Z,96874.13
2022-12-08T14:48:44.761Z,96864.59
2022-12-08T14:51:21.448Z,96859.00
2022-12-08T14:53:56.074Z,96860.81
2022-12-08T14:56:26.902Z,96850.47
2022-12-08T14:59:14.354Z,96860.31
2022-12-08T15:01:43.116Z,96863.88
2022-12-08T15:04:12.838Z,96866.50
2022-12-08T15:06:56.414Z,96859.31
2022-12-08T15:09:35.172Z,96857.50
2022-12-08T15:12:27.401Z,96857.00
2022-12-08T15:14:58.595Z,96853.56
2022-12-08T15:17:40.233Z,96852.88
2022-12-08T15:20:31.700Z,96847.47
2022-12-08T15:23:02.145Z,96838.91
2022-12-08T15:25:28.807Z,96845.31
2022-12-08T15:27:57.882Z,96845.97
2022-12-08T15:30:28.652Z,96847.75
2022-12-08T15:32:56.177Z,96835.97
2022-12-08T15:35:22.888Z,96830.72
2022-12-08T15:37:52.622Z,96803.41
2022-12-08T15:40:21.700Z,96825.25
2022-12-08T15:42:51.179Z,96822.44
2022-12-08T15:45:17.938Z,96832.94
2022-12-08T15:47:45.749Z,96821.13
2022-12-08T15:50:21.500Z,96829.69
2022-12-08T15:52:51.435Z,96827.97
2022-12-08T15:55:21.392Z,96835.16
2022-12-08T16:00:55.129Z,96833.88
2022-12-08T16:04:13.770Z,96842.72
2022-12-08T16:07:21.217Z,96828.13
2022-12-08T16:09:14.176Z,96835.47
2022-12-08T16:12:09.073Z,96826.88
2022-12-08T16:17:24.266Z,96822.16
2022-12-08T16:19:51.259Z,96822.28
2022-12-08T16:25:20.273Z,96834.47
2022-12-08T16:30:36.688Z,96817.03
2022-12-08T16:33:03.645Z,96810.19
2022-12-08T16:35:30.746Z,96809.31
2022-12-08T16:37:57.638Z,96819.28
2022-12-08T16:40:24.449Z,96808.78
2022-12-08T16:42:52.392Z,96807.56
2022-12-08T16:45:28.011Z,96809.22
2022-12-08T16:48:00.050Z,96804.75
2022-12-08T16:50:32.315Z,96818.22
2022-12-08T16:53:07.326Z,96818.22
2022-12-08T16:55:34.786Z,96813.28
2022-12-08T16:58:02.662Z,96819.88
2022-12-08T17:00:30.773Z,96820.19
2022-12-08T17:02:58.928Z,96810.84
2022-12-08T17:05:26.665Z,96809.69
2022-12-08T17:07:54.179Z,96800.88
2022-12-08T17:10:32.075Z,96803.13
2022-12-08T17:12:58.606Z,96796.31
2022-12-08T17:15:26.092Z,96792.31
2022-12-08T17:17:53.690Z,96792.13
2022-12-08T17:20:29.367Z,96799.13
2022-12-08T17:22:58.211Z,96808.56
2022-12-08T17:25:27.746Z,96800.84
2022-12-08T17:27:57.400Z,96804.41
2022-12-08T17:30:26.012Z,96798.91
2022-12-08T17:32:52.938Z,96816.47
2022-12-08T17:35:19.794Z,96804.16
2022-12-08T17:37:46.361Z,96793.38
2022-12-08T17:40:13.010Z,96793.22
2022-12-08T17:42:39.661Z,96789.25
2022-12-08T17:45:07.647Z,96798.97
2022-12-08T17:47:34.795Z,96786.50
2022-12-08T17:50:01.347Z,96770.06
2022-12-08T17:52:28.564Z,96767.88
2022-12-08T17:54:57.717Z,96783.78
2022-12-08T17:57:28.464Z,96782.97
2022-12-08T17:59:57.768Z,96788.38
2022-12-08T18:02:30.423Z,96774.91
2022-12-08T18:04:56.942Z,96780.81
2022-12-08T18:07:25.311Z,96797.72
2022-12-08T18:09:52.361Z,96784.41
2022-12-08T18:12:23.874Z,96780.00
2022-12-08T18:14:51.744Z,96749.28
2022-12-08T18:17:18.414Z,96764.09
2022-12-08T18:19:45.028Z,96746.66
2022-12-08T18:22:12.313Z,96754.38
2022-12-08T18:24:38.879Z,96756.28
2022-12-08T18:27:05.446Z,96728.88
2022-12-08T18:29:32.429Z,96717.31
2022-12-08T18:31:59.030Z,96740.53
2022-12-08T18:34:28.360Z,96745.09
2022-12-08T18:36:58.388Z,96733.88
2022-12-08T18:39:30.028Z,96733.34
2022-12-08T18:42:02.626Z,96734.84
2022-12-08T18:44:29.277Z,96744.25
2022-12-08T18:46:58.614Z,96743.50
2022-12-08T18:49:26.710Z,96750.31
2022-12-08T18:51:55.573Z,96727.91
2022-12-08T18:54:37.212Z,96749.34
2022-12-08T18:57:09.351Z,96729.56
2022-12-08T18:59:37.930Z,96725.72
2022-12-08T19:02:04.533Z,96723.56
2022-12-08T19:04:33.655Z,96723.72
2022-12-08T19:07:03.976Z,96711.28
2022-12-08T19:09:30.529Z,96714.59
2022-12-08T19:11:57.539Z,96702.78
2022-12-08T19:14:28.156Z,96726.47
2022-12-08T19:16:58.495Z,96707.06
2022-12-08T19:19:31.490Z,96713.38
2022-12-08T19:21:58.261Z,96710.13
2022-12-08T19:24:27.373Z,96729.38
2022-12-08T19:26:54.007Z,96720.56
2022-12-08T19:29:24.157Z,96722.06
2022-12-08T19:31:52.431Z,96722.34
2022-12-08T19:34:19.450Z,96717.84
2022-12-08T19:36:46.139Z,96715.78
2022-12-08T19:39:39.809Z,96721.75
2022-12-08T19:42:32.197Z,96711.66
2022-12-08T19:45:08.310Z,96729.44
2022-12-08T19:47:34.902Z,96708.91
2022-12-08T19:50:20.376Z,96715.47
2022-12-08T19:52:46.864Z,96708.59
2022-12-08T19:55:13.623Z,96717.94
2022-12-08T19:57:40.460Z,96706.00
2022-12-08T20:00:10.112Z,96709.72
2022-12-08T20:02:37.438Z,96712.91
2022-12-08T20:05:05.305Z,96713.19
2022-12-08T20:07:31.908Z,96714.44
2022-12-08T20:10:04.233Z,96704.00
2022-12-08T20:12:31.234Z,96704.81
2022-12-08T20:15:00.394Z,96695.78
2022-12-08T20:17:30.252Z,96699.00
2022-12-08T20:20:05.305Z,96698.13
2022-12-08T20:22:33.626Z,96713.63
2022-12-08T20:25:01.102Z,96699.97
2022-12-08T20:27:30.570Z,96695.28
2022-12-08T20:30:00.011Z,96685.47
2022-12-08T20:32:30.502Z,96702.03
2022-12-08T20:34:59.203Z,96679.81
2022-12-08T20:37:29.583Z,96695.44
2022-12-08T20:39:57.508Z,96701.63
2022-12-08T20:42:24.195Z,96682.28
2022-12-08T20:44:50.857Z,96702.41
2022-12-08T20:47:17.473Z,96686.88
2022-12-08T20:49:44.253Z,96685.91
2022-12-08T20:52:10.809Z,96690.53
2022-12-08T20:54:37.682Z,96690.94
2022-12-08T20:57:05.227Z,96675.25
2022-12-08T20:59:32.138Z,96687.03
2022-12-08T21:02:02.189Z,96676.22
2022-12-08T21:04:31.596Z,96689.88
2022-12-08T21:07:00.953Z,96670.81
2022-12-08T21:09:30.792Z,96679.47
2022-12-08T21:12:00.836Z,96670.59
2022-12-08T21:14:30.345Z,96688.31
2022-12-08T21:16:59.610Z,96676.34
2022-12-08T21:19:28.965Z,96653.50
2022-12-08T21:21:55.511Z,96676.72
2022-12-08T21:24:22.230Z,96664.00
2022-12-08T21:26:48.933Z,96670.72
2022-12-08T21:29:16.981Z,96652.66
2022-12-08T21:31:43.775Z,96668.31
2022-12-08T21:34:11.237Z,96657.44
2022-12-08T21:36:37.939Z,96664.88
2022-12-08T21:39:10.951Z,96662.56
2022-12-08T21:41:55.983Z,96646.66
2022-12-08T21:44:23.561Z,96657.56
2022-12-08T21:46:50.381Z,96644.94
2022-12-08T21:49:17.041Z,96654.53
2022-12-08T21:51:43.913Z,96648.47
2022-12-08T21:54:18.609Z,96648.19
2022-12-08T21:56:46.926Z,96626.97
2022-12-08T21:59:13.810Z,96646.16
2022-12-08T22:01:43.313Z,96647.78
2022-12-08T22:04:12.581Z,96650.69
2022-12-08T22:06:39.566Z,96643.59
2022-12-08T22:09:07.418Z,96628.50
2022-12-08T22:11:34.080Z,96636.06
2022-12-08T22:14:03.682Z,96649.81
2022-12-08T22:16:33.604Z,96646.38
2022-12-08T22:19:03.796Z,96640.69
2022-12-08T22:21:31.648Z,96648.22
2022-12-08T22:23:58.444Z,96635.53
2022-12-08T22:26:25.024Z,96636.56
2022-12-08T22:28:51.975Z,96624.03
2022-12-08T22:31:21.034Z,96638.03
2022-12-08T22:33:48.881Z,96628.25
2022-12-08T22:36:21.764Z,96649.78
2022-12-08T22:38:48.955Z,96637.84
2022-12-08T22:41:16.740Z,96636.31
2022-12-08T22:43:43.865Z,96649.47
2022-12-08T22:46:14.419Z,96636.97
2022-12-08T22:48:41.289Z,96628.59
2022-12-08T22:51:08.674Z,96633.94
2022-12-08T22:53:35.334Z,96627.66
2022-12-08T22:56:09.770Z,96619.59
2022-12-08T22:58:37.064Z,96613.41
2022-12-08T23:01:04.840Z,96612.22
2022-12-08T23:03:37.632Z,96615.91
2022-12-08T23:06:12.973Z,96599.47
2022-12-08T23:08:39.920Z,96607.66
2022-12-08T23:11:06.620Z,96589.94
2022-12-08T23:13:37.815Z,96593.25
2022-12-08T23:16:08.428Z,96572.97
2022-12-08T23:18:35.732Z,96591.47
2022-12-08T23:21:11.198Z,96584.59
2022-12-08T23:23:38.088Z,96583.41
2022-12-08T23:26:12.623Z,96580.28
2022-12-08T23:28:39.306Z,96589.69
2022-12-08T23:31:09.343Z,96576.00
2022-12-08T23:33:36.273Z,96578.88
2022-12-08T23:36:06.957Z,96583.13
2022-12-08T23:38:36.804Z,96584.94
2022-12-08T23:41:05.956Z,96582.38
2022-12-08T23:43:35.888Z,96580.19
2022-12-08T23:46:04.394Z,96576.53
2022-12-08T23:48:36.667Z,96563.78
2022-12-08T23:51:03.373Z,96568.00
2022-12-08T23:53:31.933Z,96575.41
2022-12-08T23:56:17.901Z,96566.44
2022-12-08T23:58:45.538Z,96573.50
